createdAt,value
2023-01-22T00:02:05.819Z,102300.19
2023-01-22T00:04:32.755Z,102313.00
2023-01-22T00:06:59.202Z,102311.25
2023-01-22T00:09:25.742Z,102310.25
2023-01-22T00:11:52.560Z,102311.97
2023-01-22T00:14:19.050Z,102320.50
2023-01-22T00:16:45.513Z,102308.50
2023-01-22T00:19:11.977Z,102294.75
2023-01-22T00:21:38.435Z,102293.34
2023-01-22T00:24:05.067Z,102295.19
2023-01-22T00:26:31.495Z,102288.28
2023-01-22T00:28:58.012Z,102285.75
2023-01-22T00:31:24.563Z,102283.25
2023-01-22T00:33:51.132Z,102269.50
2023-01-22T00:36:20.169Z,102265.22
2023-01-22T00:38:47.141Z,102262.56
2023-01-22T00:41:14.987Z,102259.19
2023-01-22T00:43:41.985Z,102262.63
2023-01-22T00:46:10.482Z,102266.91
2023-01-22T00:48:37.416Z,102259.28
2023-01-22T00:51:05.035Z,102257.41
2023-01-22T00:53:31.522Z,102253.09
2023-01-22T00:56:00.779Z,102252.28
2023-01-22T00:58:28.096Z,102247.19
2023-01-22T01:00:55.446Z,102247.06
2023-01-22T01:03:31.248Z,102264.94
2023-01-22T01:05:57.625Z,102268.41
2023-01-22T01:08:25.012Z,102253.84
2023-01-22T01:11:00.047Z,102247.72
2023-01-22T01:13:28.051Z,102246.75
2023-01-22T01:16:06.890Z,102250.97
2023-01-22T01:18:34.506Z,102241.41
2023-01-22T01:21:01.234Z,102247.38
2023-01-22T01:23:28.578Z,102240.44
2023-01-22T01:25:55.513Z,102232.78
2023-01-22T01:28:22.600Z,102243.09
2023-01-22T01:30:49.103Z,102244.72
2023-01-22T01:33:15.639Z,102247.28
2023-01-22T01:35:42.195Z,102246.47
2023-01-22T01:38:08.817Z,102238.69
2023-01-22T01:40:35.537Z,102248.25
2023-01-22T01:43:02.003Z,102249.13
2023-01-22T01:45:29.925Z,102248.31
2023-01-22T01:48:33.757Z,102246.56
2023-01-22T01:51:06.639Z,102237.94
2023-01-22T01:53:33.298Z,102234.50
2023-01-22T01:56:03.093Z,102233.53
2023-01-22T01:58:34.091Z,102225.72
2023-01-22T02:01:07.884Z,102227.34
2023-01-22T02:03:34.589Z,102234.25
2023-01-22T02:06:01.006Z,102230.72
2023-01-22T02:08:27.700Z,102236.63
2023-01-22T02:10:54.346Z,102237.50
2023-01-22T02:13:27.450Z,102241.72
2023-01-22T02:15:54.376Z,102239.84
2023-01-22T02:18:20.785Z,102221.75
2023-01-22T02:20:58.803Z,102224.25
2023-01-22T02:23:26.294Z,102224.13
2023-01-22T02:25:53.231Z,102220.75
2023-01-22T02:28:19.750Z,102224.13
2023-01-22T02:30:46.562Z,102222.25
2023-01-22T02:33:13.089Z,102227.34
2023-01-22T02:35:39.492Z,102223.97
2023-01-22T02:38:06.067Z,102224.69
2023-01-22T02:40:33.789Z,102228.97
2023-01-22T02:43:00.473Z,102226.41
2023-01-22T02:45:27.039Z,102232.44
2023-01-22T02:47:53.526Z,102228.97
2023-01-22T02:50:20.541Z,102230.72
2023-01-22T02:52:47.034Z,102227.28
2023-01-22T02:55:13.501Z,102226.47
2023-01-22T02:57:39.940Z,102227.41
2023-01-22T03:00:07.111Z,102218.75
2023-01-22T03:02:33.628Z,102225.66
2023-01-22T03:05:03.518Z,102220.50
2023-01-22T03:07:41.934Z,102217.94
2023-01-22T03:10:17.496Z,102207.44
2023-01-22T03:13:03.627Z,102212.66
2023-01-22T03:15:48.903Z,102205.00
2023-01-22T03:18:33.755Z,102201.59
2023-01-22T03:21:16.281Z,102195.56
2023-01-22T03:23:44.911Z,102201.53
2023-01-22T03:26:11.547Z,102195.56
2023-01-22T03:28:38.256Z,102190.44
2023-01-22T03:31:05.748Z,102198.16
2023-01-22T03:33:32.491Z,102193.00
2023-01-22T03:36:04.315Z,102199.09
2023-01-22T03:38:30.917Z,102193.06
2023-01-22T03:41:05.452Z,102195.72
2023-01-22T03:43:33.148Z,102192.31
2023-01-22T03:46:04.447Z,102204.47
2023-01-22T03:48:31.072Z,102201.91
2023-01-22T03:50:57.823Z,102202.78
2023-01-22T03:53:24.263Z,102201.97
2023-01-22T03:56:01.629Z,102196.88
2023-01-22T03:58:29.984Z,102200.41
2023-01-22T04:00:59.839Z,102200.34
2023-01-22T04:03:28.170Z,102197.78
2023-01-22T04:05:55.337Z,102191.00
2023-01-22T04:08:22.136Z,102191.81
2023-01-22T04:10:48.684Z,102197.78
2023-01-22T04:13:15.165Z,102198.66
2023-01-22T04:15:44.719Z,102200.41
2023-01-22T04:18:11.888Z,102199.53
2023-01-22T04:20:39.239Z,102189.16
2023-01-22T04:23:06.524Z,102195.88
2023-01-22T04:25:33.293Z,102195.13
2023-01-22T04:27:59.818Z,102183.13
2023-01-22T04:30:26.304Z,102193.44
2023-01-22T04:32:52.752Z,102198.44
2023-01-22T04:35:19.222Z,102194.88
2023-01-22T04:37:45.690Z,102192.31
2023-01-22T04:40:12.509Z,102188.88
2023-01-22T04:42:38.991Z,102184.53
2023-01-22T04:45:05.939Z,102192.31
2023-01-22T04:47:32.490Z,102187.03
2023-01-22T04:49:58.982Z,102195.72
2023-01-22T04:52:25.405Z,102194.00
2023-01-22T04:54:53.304Z,102196.59
2023-01-22T04:57:19.748Z,102202.63
2023-01-22T04:59:46.182Z,102200.16
2023-01-22T05:02:12.692Z,102195.81
2023-01-22T05:04:39.107Z,102196.69
2023-01-22T05:07:05.598Z,102196.75
2023-01-22T05:09:32.049Z,102190.66
2023-01-22T05:11:58.542Z,102192.31
2023-01-22T05:14:24.990Z,102187.16
2023-01-22T05:16:51.424Z,102189.69
2023-01-22T05:19:17.851Z,102174.28
2023-01-22T05:21:44.299Z,102190.66
2023-01-22T05:24:10.813Z,102194.81
2023-01-22T05:26:37.270Z,102192.25
2023-01-22T05:29:03.821Z,102187.91
2023-01-22T05:31:30.592Z,102187.84
2023-01-22T05:33:57.226Z,102192.19
2023-01-22T05:36:23.647Z,102191.31
2023-01-22T05:38:50.074Z,102187.03
2023-01-22T05:41:16.492Z,102187.97
2023-01-22T05:43:42.938Z,102188.88
2023-01-22T05:46:09.409Z,102184.59
2023-01-22T05:48:35.852Z,102193.22
2023-01-22T05:51:04.706Z,102189.75
2023-01-22T05:53:31.171Z,102196.69
2023-01-22T05:56:05.075Z,102195.88
2023-01-22T05:58:32.532Z,102202.78
2023-01-22T06:00:59.205Z,102207.94
2023-01-22T06:03:25.691Z,102198.44
2023-01-22T06:06:12.305Z,102197.63
2023-01-22T06:08:39.407Z,102195.94
2023-01-22T06:11:12.807Z,102193.28
2023-01-22T06:13:39.704Z,102197.63
2023-01-22T06:16:06.948Z,102203.53
2023-01-22T06:18:33.536Z,102195.00
2023-01-22T06:21:05.623Z,102195.81
2023-01-22T06:23:32.306Z,102190.72
2023-01-22T06:26:00.036Z,102198.44
2023-01-22T06:28:26.534Z,102195.88
2023-01-22T06:30:57.295Z,102195.06
2023-01-22T06:33:24.505Z,102189.91
2023-01-22T06:35:55.334Z,102195.88
2023-01-22T06:38:22.735Z,102199.31
2023-01-22T06:40:59.987Z,102197.63
2023-01-22T06:43:27.992Z,102201.03
2023-01-22T06:45:54.940Z,102210.50
2023-01-22T06:48:21.458Z,102198.50
2023-01-22T06:50:48.053Z,102207.19
2023-01-22T06:53:14.597Z,102210.56
2023-01-22T06:55:41.053Z,102203.78
2023-01-22T06:58:07.463Z,102200.34
2023-01-22T07:00:33.877Z,102201.28
2023-01-22T07:03:00.381Z,102196.94
2023-01-22T07:05:27.447Z,102204.75
2023-01-22T07:07:55.131Z,102212.41
2023-01-22T07:10:22.332Z,102215.16
2023-01-22T07:12:49.951Z,102213.38
2023-01-22T07:15:16.517Z,102205.66
2023-01-22T07:17:43.081Z,102214.34
2023-01-22T07:20:10.178Z,102224.63
2023-01-22T07:22:36.597Z,102224.63
2023-01-22T07:25:03.421Z,102221.25
2023-01-22T07:27:32.395Z,102222.13
2023-01-22T07:29:58.874Z,102233.31
2023-01-22T07:32:25.346Z,102233.25
2023-01-22T07:34:51.941Z,102247.94
2023-01-22T07:37:18.991Z,102234.13
2023-01-22T07:39:47.607Z,102250.44
2023-01-22T07:42:14.083Z,102245.38
2023-01-22T07:44:40.579Z,102254.03
2023-01-22T07:47:07.119Z,102255.66
2023-01-22T07:49:33.640Z,102260.81
2023-01-22T07:52:00.239Z,102265.16
2023-01-22T07:54:26.790Z,102265.97
2023-01-22T07:56:53.241Z,102270.31
2023-01-22T07:59:19.762Z,102263.47
2023-01-22T08:01:46.334Z,102260.06
2023-01-22T08:04:12.810Z,102262.75
2023-01-22T08:06:39.365Z,102267.81
2023-01-22T08:09:06.586Z,102267.72
2023-01-22T08:11:33.029Z,102266.91
2023-01-22T08:13:59.470Z,102273.84
2023-01-22T08:16:25.913Z,102270.53
2023-01-22T08:18:52.400Z,102271.34
2023-01-22T08:21:18.852Z,102276.50
2023-01-22T08:23:48.887Z,102264.50
2023-01-22T08:26:15.564Z,102262.81
2023-01-22T08:28:42.080Z,102267.22
2023-01-22T08:31:16.493Z,102272.38
2023-01-22T08:33:49.413Z,102278.47
2023-01-22T08:36:15.849Z,102280.25
2023-01-22T08:38:42.287Z,102284.50
2023-01-22T08:41:08.775Z,102281.03
2023-01-22T08:43:35.250Z,102282.03
2023-01-22T08:46:01.701Z,102282.03
2023-01-22T08:48:28.124Z,102282.81
2023-01-22T08:50:54.580Z,102279.53
2023-01-22T08:53:21.020Z,102276.88
2023-01-22T08:55:50.780Z,102278.72
2023-01-22T08:58:17.992Z,102281.22
2023-01-22T09:00:44.655Z,102282.22
2023-01-22T09:03:11.226Z,102284.88
2023-01-22T09:05:39.898Z,102289.97
2023-01-22T09:08:07.807Z,102287.38
2023-01-22T09:10:34.375Z,102287.38
2023-01-22T09:13:01.252Z,102282.38
2023-01-22T09:15:27.990Z,102285.81
2023-01-22T09:17:54.620Z,102285.13
2023-01-22T09:20:21.390Z,102281.66
2023-01-22T09:22:49.366Z,102291.06
2023-01-22T09:25:15.957Z,102288.56
2023-01-22T09:27:42.446Z,102286.88
2023-01-22T09:30:09.693Z,102290.34
2023-01-22T09:32:36.469Z,102288.69
2023-01-22T09:35:02.996Z,102287.88
2023-01-22T09:37:29.443Z,102293.09
2023-01-22T09:39:55.946Z,102287.25
2023-01-22T09:42:34.973Z,102288.06
2023-01-22T09:45:07.115Z,102298.44
2023-01-22T09:47:43.994Z,102297.47
2023-01-22T09:50:21.648Z,102306.09
2023-01-22T09:52:51.648Z,102301.06
2023-01-22T09:55:22.122Z,102294.28
2023-01-22T09:57:52.028Z,102294.28
2023-01-22T10:00:21.960Z,102294.28
2023-01-22T10:02:55.924Z,102298.72
2023-01-22T10:05:57.712Z,102294.28
2023-01-22T10:08:31.283Z,102293.47
2023-01-22T10:11:01.030Z,102293.56
2023-01-22T10:13:36.257Z,102285.75
2023-01-22T10:16:04.081Z,102287.72
2023-01-22T10:18:39.615Z,102283.34
2023-01-22T10:21:11.937Z,102288.56
2023-01-22T10:23:38.465Z,102292.88
2023-01-22T10:26:17.594Z,102292.97
2023-01-22T10:28:50.269Z,102305.19
2023-01-22T10:31:35.284Z,102300.91
2023-01-22T10:34:13.048Z,102299.94
2023-01-22T10:36:39.553Z,102296.59
2023-01-22T10:39:12.243Z,102294.06
2023-01-22T10:41:39.934Z,102296.66
2023-01-22T10:44:16.556Z,102292.31
2023-01-22T10:46:43.450Z,102285.53
2023-01-22T10:49:22.732Z,102289.63
2023-01-22T10:51:58.095Z,102284.56
2023-01-22T10:54:45.945Z,102286.47
2023-01-22T10:57:26.908Z,102286.47
2023-01-22T11:00:04.195Z,102282.19
2023-01-22T11:02:33.057Z,102281.44
2023-01-22T11:05:18.428Z,102284.84
2023-01-22T11:07:47.523Z,102281.53
2023-01-22T11:10:28.052Z,102277.25
2023-01-22T11:13:05.397Z,102274.69
2023-01-22T11:15:54.232Z,102281.66
2023-01-22T11:18:31.389Z,102277.47
2023-01-22T11:21:00.625Z,102277.41
2023-01-22T11:23:52.350Z,102269.72
2023-01-22T11:26:34.075Z,102275.81
2023-01-22T11:29:28.246Z,102275.09
2023-01-22T11:32:22.649Z,102280.34
2023-01-22T11:35:18.459Z,102276.88
2023-01-22T11:37:57.161Z,102271.78
2023-01-22T11:40:33.137Z,102272.78
2023-01-22T11:43:21.011Z,102270.16
2023-01-22T11:45:59.689Z,102273.75
2023-01-22T11:48:48.180Z,102267.63
2023-01-22T11:51:19.715Z,102275.53
2023-01-22T11:54:16.901Z,102266.97
2023-01-22T11:56:52.560Z,102262.63
2023-01-22T11:59:28.396Z,102263.63
2023-01-22T12:02:24.161Z,102265.34
2023-01-22T12:05:09.493Z,102275.81
2023-01-22T12:07:59.524Z,102278.38
2023-01-22T12:10:28.983Z,102268.97
2023-01-22T12:13:20.381Z,102274.19
2023-01-22T12:16:19.171Z,102262.09
2023-01-22T12:19:00.888Z,102269.84
2023-01-22T12:22:04.931Z,102270.72
2023-01-22T12:24:39.471Z,102263.88
2023-01-22T12:27:12.185Z,102269.84
2023-01-22T12:29:45.105Z,102264.69
2023-01-22T12:32:15.233Z,102268.06
2023-01-22T12:34:41.729Z,102269.75
2023-01-22T12:37:14.863Z,102274.00
2023-01-22T12:40:05.426Z,102270.66
2023-01-22T12:42:41.464Z,102268.13
2023-01-22T12:45:31.161Z,102260.34
2023-01-22T12:48:03.535Z,102269.91
2023-01-22T12:50:29.959Z,102267.38
2023-01-22T12:53:05.285Z,102273.28
2023-01-22T12:55:38.203Z,102275.13
2023-01-22T12:58:05.026Z,102263.03
2023-01-22T13:00:39.102Z,102264.81
2023-01-22T13:03:32.906Z,102265.75
2023-01-22T13:06:02.078Z,102262.34
2023-01-22T13:08:39.110Z,102267.50
2023-01-22T13:11:11.454Z,102260.75
2023-01-22T13:13:47.264Z,102259.22
2023-01-22T13:16:26.878Z,102257.47
2023-01-22T13:18:56.651Z,102256.81
2023-01-22T13:21:27.732Z,102255.13
2023-01-22T13:24:01.870Z,102256.88
2023-01-22T13:26:32.145Z,102263.91
2023-01-22T13:29:21.055Z,102270.72
2023-01-22T13:31:56.175Z,102264.66
2023-01-22T13:34:23.137Z,102272.34
2023-01-22T13:36:51.395Z,102264.56
2023-01-22T13:39:23.965Z,102276.63
2023-01-22T13:41:53.075Z,102275.75
2023-01-22T13:44:32.766Z,102278.22
2023-01-22T13:46:59.496Z,102286.13
2023-01-22T13:49:31.913Z,102277.34
2023-01-22T13:52:05.822Z,102278.22
2023-01-22T13:54:45.230Z,102277.44
2023-01-22T13:57:20.106Z,102274.78
2023-01-22T13:59:53.823Z,102276.63
2023-01-22T14:02:21.402Z,102288.66
2023-01-22T14:04:48.857Z,102281.78
2023-01-22T14:07:26.957Z,102286.13
2023-01-22T14:09:54.095Z,102288.72
2023-01-22T14:12:24.261Z,102294.75
2023-01-22T14:14:51.518Z,102287.00
2023-01-22T14:17:34.197Z,102292.09
2023-01-22T14:20:02.424Z,102300.72
2023-01-22T14:22:28.898Z,102296.44
2023-01-22T14:24:55.454Z,102299.84
2023-01-22T14:27:23.411Z,102301.59
2023-01-22T14:29:50.688Z,102303.38
2023-01-22T14:32:17.140Z,102297.31
2023-01-22T14:34:43.631Z,102308.59
2023-01-22T14:37:13.781Z,102306.75
2023-01-22T14:39:40.240Z,102315.38
2023-01-22T14:42:06.710Z,102323.06
2023-01-22T14:44:33.244Z,102318.78
2023-01-22T14:46:59.702Z,102317.97
2023-01-22T14:49:26.179Z,102317.09
2023-01-22T14:51:53.690Z,102321.44
2023-01-22T14:54:20.232Z,102329.22
2023-01-22T14:56:46.678Z,102326.59
2023-01-22T14:59:13.102Z,102341.25
2023-01-22T15:01:39.521Z,102338.66
2023-01-22T15:04:06.501Z,102343.81
2023-01-22T15:06:33.099Z,102339.47
2023-01-22T15:09:00.115Z,102336.91
2023-01-22T15:11:26.588Z,102335.19
2023-01-22T15:13:55.163Z,102351.56
2023-01-22T15:16:21.621Z,102344.69
2023-01-22T15:18:48.074Z,102347.22
2023-01-22T15:21:14.620Z,102352.38
2023-01-22T15:23:41.012Z,102358.41
2023-01-22T15:26:21.968Z,102355.03
2023-01-22T15:28:48.405Z,102352.38
2023-01-22T15:31:14.937Z,102363.59
2023-01-22T15:33:41.450Z,102352.38
2023-01-22T15:36:08.625Z,102366.16
2023-01-22T15:38:35.171Z,102365.28
2023-01-22T15:41:32.444Z,102361.81
2023-01-22T15:44:01.288Z,102368.75
2023-01-22T15:46:38.566Z,102363.66
2023-01-22T15:49:08.059Z,102363.59
2023-01-22T15:51:35.453Z,102375.59
2023-01-22T15:54:04.057Z,102376.34
2023-01-22T15:56:36.364Z,102381.63
2023-01-22T15:59:03.955Z,102373.84
2023-01-22T16:01:30.455Z,102366.16
2023-01-22T16:03:57.156Z,102369.63
2023-01-22T16:06:28.466Z,102360.94
2023-01-22T16:09:00.260Z,102361.00
2023-01-22T16:11:28.641Z,102366.09
2023-01-22T16:13:55.904Z,102366.09
2023-01-22T16:16:25.980Z,102367.91
2023-01-22T16:18:53.774Z,102362.75
2023-01-22T16:21:22.020Z,102367.84
2023-01-22T16:23:51.993Z,102364.41
2023-01-22T16:26:22.041Z,102359.25
2023-01-22T16:28:57.131Z,102358.28
2023-01-22T16:31:29.016Z,102363.66
2023-01-22T16:34:00.779Z,102359.25
2023-01-22T16:36:29.621Z,102358.41
2023-01-22T16:38:56.464Z,102366.09
2023-01-22T16:41:28.388Z,102364.34
2023-01-22T16:44:07.130Z,102364.34
2023-01-22T16:46:35.845Z,102368.63
2023-01-22T16:49:08.130Z,102364.41
2023-01-22T16:51:40.713Z,102359.16
2023-01-22T16:54:07.839Z,102367.78
2023-01-22T16:56:35.116Z,102371.25
2023-01-22T16:59:01.657Z,102364.34
2023-01-22T17:01:31.315Z,102363.44
2023-01-22T17:03:57.823Z,102372.06
2023-01-22T17:06:42.754Z,102363.44
2023-01-22T17:09:15.398Z,102361.75
2023-01-22T17:11:43.604Z,102364.41
2023-01-22T17:14:10.506Z,102368.69
2023-01-22T17:16:38.425Z,102372.88
2023-01-22T17:19:05.317Z,102368.44
2023-01-22T17:21:31.845Z,102379.72
2023-01-22T17:23:58.349Z,102378.13
2023-01-22T17:26:24.814Z,102391.91
2023-01-22T17:28:51.248Z,102387.56
2023-01-22T17:31:22.181Z,102390.94
2023-01-22T17:33:49.525Z,102382.28
2023-01-22T17:36:19.098Z,102383.09
2023-01-22T17:38:45.805Z,102381.41
2023-01-22T17:41:15.823Z,102387.38
2023-01-22T17:43:43.766Z,102384.81
2023-01-22T17:46:16.547Z,102385.69
2023-01-22T17:48:44.304Z,102393.53
2023-01-22T17:51:13.376Z,102388.44
2023-01-22T17:53:42.219Z,102389.16
2023-01-22T17:56:16.550Z,102391.72
2023-01-22T17:58:45.979Z,102398.69
2023-01-22T18:01:15.078Z,102398.69
2023-01-22T18:03:41.901Z,102401.25
2023-01-22T18:06:08.868Z,102396.97
2023-01-22T18:08:38.517Z,102404.72
2023-01-22T18:11:14.638Z,102414.22
2023-01-22T18:13:41.836Z,102414.16
2023-01-22T18:16:12.095Z,102409.94
2023-01-22T18:18:39.291Z,102413.41
2023-01-22T18:21:07.060Z,102414.28
2023-01-22T18:23:33.622Z,102410.00
2023-01-22T18:26:04.024Z,102416.88
2023-01-22T18:28:31.148Z,102413.47
2023-01-22T18:31:06.104Z,102420.41
2023-01-22T18:33:34.231Z,102420.34
2023-01-22T18:36:00.758Z,102431.53
2023-01-22T18:38:28.504Z,102434.25
2023-01-22T18:40:56.264Z,102433.28
2023-01-22T18:43:23.010Z,102439.34
2023-01-22T18:45:49.510Z,102434.13
2023-01-22T18:48:16.480Z,102444.38
2023-01-22T18:50:43.009Z,102444.44
2023-01-22T18:53:09.793Z,102443.56
2023-01-22T18:55:36.890Z,102440.97
2023-01-22T18:58:08.715Z,102441.78
2023-01-22T19:00:37.126Z,102448.78
2023-01-22T19:03:04.081Z,102447.91
2023-01-22T19:05:30.656Z,102448.78
2023-01-22T19:07:57.059Z,102444.50
2023-01-22T19:10:23.947Z,102459.22
2023-01-22T19:12:50.475Z,102455.69
2023-01-22T19:15:17.434Z,102460.03
2023-01-22T19:17:44.194Z,102455.88
2023-01-22T19:20:13.038Z,102455.88
2023-01-22T19:22:39.453Z,102454.88
2023-01-22T19:25:06.818Z,102458.34
2023-01-22T19:27:35.542Z,102460.03
2023-01-22T19:30:02.378Z,102466.97
2023-01-22T19:32:30.343Z,102469.53
2023-01-22T19:34:57.682Z,102470.38
2023-01-22T19:37:25.114Z,102483.19
2023-01-22T19:39:51.733Z,102478.16
2023-01-22T19:42:18.480Z,102485.03
2023-01-22T19:44:45.402Z,102479.16
2023-01-22T19:47:12.317Z,102479.88
2023-01-22T19:49:39.768Z,102476.56
2023-01-22T19:52:06.328Z,102473.94
2023-01-22T19:54:32.836Z,102482.56
2023-01-22T19:56:59.315Z,102479.16
2023-01-22T19:59:25.810Z,102481.72
2023-01-22T20:01:52.585Z,102475.75
2023-01-22T20:04:23.986Z,102479.97
2023-01-22T20:06:55.120Z,102473.09
2023-01-22T20:09:22.091Z,102476.63
2023-01-22T20:11:52.855Z,102474.13
2023-01-22T20:14:24.173Z,102482.75
2023-01-22T20:16:51.243Z,102481.06
2023-01-22T20:19:18.331Z,102500.00
2023-01-22T20:21:44.814Z,102495.66
2023-01-22T20:24:11.272Z,102499.94
2023-01-22T20:26:37.761Z,102493.94
2023-01-22T20:29:04.617Z,102496.59
2023-01-22T20:31:31.319Z,102501.75
2023-01-22T20:33:58.170Z,102506.09
2023-01-22T20:36:27.781Z,102504.44
2023-01-22T20:38:55.092Z,102495.78
2023-01-22T20:41:22.972Z,102502.75
2023-01-22T20:43:50.096Z,102506.22
2023-01-22T20:46:20.001Z,102490.72
2023-01-22T20:48:47.292Z,102502.81
2023-01-22T20:51:17.271Z,102507.09
2023-01-22T20:53:45.377Z,102511.44
2023-01-22T20:56:15.094Z,102512.31
2023-01-22T20:58:42.328Z,102514.06
2023-01-22T21:01:15.583Z,102507.16
2023-01-22T21:03:43.047Z,102515.78
2023-01-22T21:06:13.592Z,102518.34
2023-01-22T21:08:41.599Z,102509.72
2023-01-22T21:11:11.274Z,102518.44
2023-01-22T21:13:39.855Z,102525.34
2023-01-22T21:16:15.311Z,102524.47
2023-01-22T21:18:44.716Z,102519.31
2023-01-22T21:21:21.839Z,102516.78
2023-01-22T21:23:50.780Z,102524.53
2023-01-22T21:26:19.671Z,102523.72
2023-01-22T21:28:47.958Z,102515.09
2023-01-22T21:31:17.365Z,102509.16
2023-01-22T21:33:44.533Z,102519.53
2023-01-22T21:36:12.665Z,102522.19
2023-01-22T21:38:39.537Z,102520.63
2023-01-22T21:41:08.825Z,102510.22
2023-01-22T21:43:54.354Z,102512.88
2023-01-22T21:46:27.596Z,102512.94
2023-01-22T21:48:58.259Z,102529.25
2023-01-22T21:51:29.447Z,102525.84
2023-01-22T21:53:58.210Z,102522.38
2023-01-22T21:56:25.427Z,102519.81
2023-01-22T21:58:52.033Z,102513.75
2023-01-22T22:01:21.736Z,102532.81
2023-01-22T22:03:48.565Z,102533.69
2023-01-22T22:06:15.126Z,102526.84
2023-01-22T22:08:43.439Z,102519.97
2023-01-22T22:11:12.444Z,102523.38
2023-01-22T22:13:39.088Z,102531.00
2023-01-22T22:16:07.997Z,102521.59
2023-01-22T22:18:34.857Z,102525.84
2023-01-22T22:21:04.825Z,102518.94
2023-01-22T22:23:31.850Z,102529.25
2023-01-22T22:25:58.925Z,102527.47
2023-01-22T22:28:25.589Z,102517.22
2023-01-22T22:30:52.440Z,102531.00
2023-01-22T22:33:19.328Z,102525.06
2023-01-22T22:35:47.349Z,102524.19
2023-01-22T22:38:14.792Z,102524.09
2023-01-22T22:40:41.781Z,102522.50
2023-01-22T22:43:08.996Z,102524.19
2023-01-22T22:45:37.653Z,102517.31
2023-01-22T22:48:05.306Z,102521.59
2023-01-22T22:50:31.863Z,102519.91
2023-01-22T22:52:58.362Z,102520.69
2023-01-22T22:55:26.601Z,102534.56
2023-01-22T22:57:53.313Z,102524.31
2023-01-22T23:00:20.242Z,102523.44
2023-01-22T23:02:47.044Z,102525.06
2023-01-22T23:05:13.509Z,102526.75
2023-01-22T23:07:39.981Z,102527.66
2023-01-22T23:10:07.687Z,102528.53
2023-01-22T23:12:34.102Z,102528.59
2023-01-22T23:15:00.564Z,102523.44
2023-01-22T23:17:27.027Z,102521.81
2023-01-22T23:19:53.500Z,102525.25
2023-01-22T23:22:19.903Z,102527.78
2023-01-22T23:24:47.163Z,102526.97
2023-01-22T23:27:13.618Z,102544.16
2023-01-22T23:29:40.082Z,102533.91
2023-01-22T23:32:06.522Z,102538.25
2023-01-22T23:34:32.952Z,102551.16
2023-01-22T23:36:59.421Z,102549.31
2023-01-22T23:39:25.857Z,102554.53
2023-01-22T23:41:52.302Z,102548.50
2023-01-22T23:44:18.862Z,102560.66
2023-01-22T23:46:45.773Z,102554.72
2023-01-22T23:49:12.747Z,102559.78
2023-01-22T23:51:42.086Z,102558.88
2023-01-22T23:54:09.003Z,102558.06
2023-01-22T23:56:35.525Z,102565.81
2023-01-22T23:59:01.967Z,102565.81
